createdAt,value
2023-04-16T00:01:15.290Z,12.17
2023-04-16T00:06:18.458Z,9.73
2023-04-16T00:11:22.298Z,12.37
2023-04-16T00:16:25.961Z,10.50
2023-04-16T00:21:29.218Z,9.20
2023-04-16T00:26:32.642Z,11.20
2023-04-16T00:31:36.054Z,10.10
2023-04-16T00:36:39.280Z,9.37
2023-04-16T00:41:44.082Z,11.83
2023-04-16T00:46:47.784Z,10.37
2023-04-16T00:51:51.610Z,8.87
2023-04-16T00:56:54.887Z,10.63
2023-04-16T01:01:58.122Z,9.83
2023-04-16T01:07:01.500Z,12.50
2023-04-16T01:12:04.898Z,10.27
2023-04-16T01:17:08.621Z,17.27
2023-04-16T01:22:12.110Z,11.40
2023-04-16T01:27:15.355Z,11.63
2023-04-16T01:32:19.002Z,11.93
2023-04-16T01:37:22.220Z,12.43
2023-04-16T01:42:25.569Z,11.13
2023-04-16T01:47:29.069Z,10.60
2023-04-16T01:52:32.263Z,11.73
2023-04-16T01:57:35.772Z,11.47
2023-04-16T02:02:40.045Z,14.10
2023-04-16T02:07:43.454Z,11.40
2023-04-16T02:12:46.719Z,12.10
2023-04-16T02:17:54.251Z,11.83
2023-04-16T02:22:57.512Z,15.20
2023-04-16T02:28:00.838Z,14.30
2023-04-16T02:33:06.104Z,14.10
2023-04-16T02:38:09.623Z,16.43
2023-04-16T02:43:12.874Z,15.90
2023-04-16T02:48:16.055Z,15.43
2023-04-16T02:53:19.468Z,16.17
2023-04-16T02:58:24.718Z,17.57
2023-04-16T03:03:28.150Z,20.53
2023-04-16T03:08:31.494Z,17.73
2023-04-16T03:13:34.899Z,17.27
2023-04-16T03:18:38.242Z,16.13
2023-04-16T03:23:41.626Z,16.77
2023-04-16T03:28:44.869Z,18.97
2023-04-16T03:33:48.288Z,18.87
2023-04-16T03:38:51.640Z,16.13
2023-04-16T03:43:54.918Z,16.50
2023-04-16T03:48:58.116Z,16.80
2023-04-16T03:54:01.448Z,17.37
2023-04-16T03:59:04.984Z,19.37
2023-04-16T04:04:09.973Z,19.43
2023-04-16T04:09:14.020Z,18.90
2023-04-16T04:14:17.208Z,16.70
2023-04-16T04:19:20.460Z,18.03
2023-04-16T04:24:23.703Z,19.23
2023-04-16T04:29:27.030Z,16.00
2023-04-16T04:34:30.178Z,19.27
2023-04-16T04:39:33.432Z,17.80
2023-04-16T04:44:36.642Z,17.57
2023-04-16T04:49:40.067Z,18.43
2023-04-16T04:54:43.352Z,20.50
2023-04-16T04:59:46.562Z,19.87
2023-04-16T05:04:49.853Z,20.37
2023-04-16T05:09:53.173Z,19.47
2023-04-16T05:14:56.464Z,17.57
2023-04-16T05:19:59.657Z,20.77
2023-04-16T05:25:03.247Z,23.60
2023-04-16T05:30:07.625Z,22.90
2023-04-16T05:35:11.470Z,24.23
2023-04-16T05:40:15.042Z,21.37
2023-04-16T05:45:18.310Z,22.77
2023-04-16T05:50:21.952Z,22.83
2023-04-16T05:55:25.284Z,21.07
2023-04-16T06:00:28.579Z,22.03
2023-04-16T06:05:31.967Z,20.13
2023-04-16T06:10:35.429Z,24.80
2023-04-16T06:15:38.948Z,18.47
2023-04-16T06:20:42.242Z,18.00
2023-04-16T06:25:45.538Z,16.97
2023-04-16T06:30:48.850Z,18.03
2023-04-16T06:35:52.086Z,20.03
2023-04-16T06:40:55.480Z,18.40
2023-04-16T06:45:58.761Z,17.97
2023-04-16T06:51:02.331Z,15.47
2023-04-16T06:56:06.634Z,17.40
2023-04-16T07:01:10.589Z,17.77
2023-04-16T07:06:14.168Z,18.40
2023-04-16T07:11:17.605Z,17.90
2023-04-16T07:16:21.406Z,17.57
2023-04-16T07:21:24.693Z,15.57
2023-04-16T07:26:28.132Z,16.83
2023-04-16T07:31:31.574Z,12.97
2023-04-16T07:36:35.004Z,13.57
2023-04-16T07:41:41.400Z,14.70
2023-04-16T07:46:47.320Z,18.00
2023-04-16T07:51:50.989Z,18.07
2023-04-16T07:56:54.182Z,21.07
2023-04-16T08:01:57.769Z,18.03
2023-04-16T08:07:01.187Z,21.23
2023-04-16T08:12:04.893Z,20.73
2023-04-16T08:17:08.109Z,16.33
2023-04-16T08:22:14.448Z,16.63
2023-04-16T08:27:19.712Z,17.90
2023-04-16T08:32:23.739Z,17.57
2023-04-16T08:37:29.773Z,15.97
2023-04-16T08:42:38.235Z,17.23
2023-04-16T08:47:42.333Z,17.00
2023-04-16T08:53:14.230Z,15.43
2023-04-16T08:58:23.052Z,16.27
2023-04-16T09:03:27.580Z,11.77
2023-04-16T09:08:32.652Z,10.73
2023-04-16T09:13:37.651Z,12.27
2023-04-16T09:18:41.681Z,9.77
2023-04-16T09:23:45.633Z,12.07
2023-04-16T09:28:51.715Z,14.03
2023-04-16T09:34:06.326Z,9.67
2023-04-16T09:39:20.464Z,13.00
2023-04-16T09:44:37.249Z,12.90
2023-04-16T09:49:43.778Z,15.57
2023-04-16T09:54:51.948Z,13.10
2023-04-16T10:00:01.491Z,12.90
2023-04-16T10:05:05.317Z,14.20
2023-04-16T10:10:09.019Z,14.50
2023-04-16T10:15:12.344Z,18.80
2023-04-16T10:20:17.289Z,12.77
2023-04-16T10:25:23.495Z,15.10
2023-04-16T10:30:27.639Z,17.73
2023-04-16T10:35:31.940Z,19.17
2023-04-16T10:40:36.058Z,15.77
2023-04-16T10:45:39.189Z,15.23
2023-04-16T10:50:42.452Z,17.20
2023-04-16T10:56:06.595Z,15.93
2023-04-16T11:01:14.183Z,15.10
2023-04-16T11:06:24.428Z,20.03
2023-04-16T11:11:29.677Z,16.70
2023-04-16T11:16:33.538Z,19.17
2023-04-16T11:21:36.954Z,14.87
2023-04-16T11:26:40.513Z,14.37
2023-04-16T11:31:50.030Z,16.73
2023-04-16T11:36:53.466Z,14.80
2023-04-16T11:41:56.938Z,13.30
2023-04-16T11:47:07.882Z,14.20
2023-04-16T11:52:11.673Z,15.10
2023-04-16T11:57:15.574Z,16.03
2023-04-16T12:02:18.949Z,14.67
2023-04-16T12:07:22.223Z,16.60
2023-04-16T12:12:33.051Z,15.67
2023-04-16T12:17:38.744Z,20.33
2023-04-16T12:22:49.858Z,16.93
2023-04-16T12:27:56.253Z,14.10
2023-04-16T12:33:19.906Z,23.47
2023-04-16T12:38:24.597Z,18.30
2023-04-16T12:43:28.907Z,15.17
2023-04-16T12:48:33.350Z,15.37
2023-04-16T12:53:37.114Z,19.50
2023-04-16T12:58:40.518Z,20.80
2023-04-16T13:03:43.931Z,19.17
2023-04-16T13:08:47.325Z,20.00
2023-04-16T13:13:50.838Z,13.90
2023-04-16T13:18:53.903Z,19.03
2023-04-16T13:23:57.602Z,13.57
2023-04-16T13:29:01.712Z,15.37
2023-04-16T13:34:06.024Z,20.87
2023-04-16T13:39:12.403Z,20.77
2023-04-16T13:44:16.307Z,25.13
2023-04-16T13:49:19.956Z,27.97
2023-04-16T13:54:23.951Z,17.83
2023-04-16T13:59:27.524Z,17.80
2023-04-16T14:04:32.149Z,19.63
2023-04-16T14:09:35.390Z,16.80
2023-04-16T14:14:38.592Z,15.37
2023-04-16T14:19:43.099Z,12.17
2023-04-16T14:24:46.519Z,14.17
2023-04-16T14:29:49.780Z,16.63
2023-04-16T14:34:53.494Z,19.27
2023-04-16T14:39:57.890Z,16.27
2023-04-16T14:45:01.957Z,16.50
2023-04-16T14:50:12.769Z,8.40
2023-04-16T14:55:16.284Z,9.53
2023-04-16T15:00:21.031Z,8.80
2023-04-16T15:05:24.260Z,11.63
2023-04-16T15:10:29.056Z,8.73
2023-04-16T15:15:32.537Z,8.63
2023-04-16T15:20:37.113Z,8.93
2023-04-16T15:25:42.257Z,10.80
2023-04-16T15:30:46.094Z,8.53
2023-04-16T15:35:55.976Z,12.23
2023-04-16T15:41:02.231Z,10.13
2023-04-16T15:46:07.531Z,12.43
2023-04-16T15:51:12.684Z,10.37
2023-04-16T15:56:16.613Z,7.87
2023-04-16T16:01:20.330Z,7.73
2023-04-16T16:06:24.268Z,7.47
2023-04-16T16:11:29.813Z,10.40
2023-04-16T16:16:36.916Z,9.33
2023-04-16T16:21:43.487Z,11.67
2023-04-16T16:26:47.783Z,9.60
2023-04-16T16:31:53.305Z,8.30
2023-04-16T16:36:57.392Z,9.43
2023-04-16T16:42:02.105Z,8.87
2023-04-16T16:47:06.803Z,10.03
2023-04-16T16:52:11.902Z,9.40
2023-04-16T16:57:16.685Z,14.60
2023-04-16T17:02:22.134Z,11.63
2023-04-16T17:07:27.491Z,14.93
2023-04-16T17:12:31.962Z,11.87
2023-04-16T17:17:36.309Z,12.63
2023-04-16T17:22:41.762Z,12.03
2023-04-16T17:27:47.385Z,10.33
2023-04-16T17:32:51.561Z,7.03
2023-04-16T17:37:55.549Z,6.00
2023-04-16T17:42:59.005Z,6.93
2023-04-16T17:48:04.183Z,6.90
2023-04-16T17:53:09.701Z,8.63
2023-04-16T17:58:13.927Z,10.50
2023-04-16T18:03:22.175Z,9.70
2023-04-16T18:08:28.797Z,13.13
2023-04-16T18:13:35.650Z,12.20
2023-04-16T18:18:40.979Z,9.57
2023-04-16T18:23:47.873Z,11.60
2023-04-16T18:28:55.731Z,9.43
2023-04-16T18:33:59.772Z,10.03
2023-04-16T18:39:04.422Z,10.87
2023-04-16T18:44:12.117Z,9.73
2023-04-16T18:49:17.053Z,8.93
2023-04-16T18:54:22.206Z,9.50
2023-04-16T18:59:30.308Z,6.90
2023-04-16T19:04:39.076Z,8.57
2023-04-16T19:09:45.403Z,9.77
2023-04-16T19:14:51.482Z,9.23
2023-04-16T19:19:58.157Z,7.43
2023-04-16T19:25:04.074Z,8.63
2023-04-16T19:30:09.888Z,10.70
2023-04-16T19:35:17.295Z,7.77
2023-04-16T19:40:22.405Z,8.90
2023-04-16T19:45:27.940Z,8.90
2023-04-16T19:50:32.674Z,10.17
2023-04-16T19:55:38.116Z,9.97
2023-04-16T20:00:42.925Z,11.57
2023-04-16T20:05:51.279Z,11.63
2023-04-16T20:10:56.036Z,12.60
2023-04-16T20:16:03.798Z,11.03
2023-04-16T20:21:12.041Z,11.30
2023-04-16T20:26:18.882Z,12.13
2023-04-16T20:31:23.691Z,10.67
2023-04-16T20:36:31.520Z,11.97
2023-04-16T20:41:35.337Z,12.70
2023-04-16T20:46:39.213Z,12.07
2023-04-16T20:51:42.626Z,12.43
2023-04-16T20:56:47.220Z,12.67
2023-04-16T21:01:52.637Z,14.00
2023-04-16T21:06:56.415Z,14.20
2023-04-16T21:11:59.710Z,12.23
2023-04-16T21:17:02.948Z,12.53
2023-04-16T21:22:06.338Z,11.50
2023-04-16T21:27:09.609Z,11.17
2023-04-16T21:32:13.799Z,10.47
2023-04-16T21:37:17.081Z,9.67
2023-04-16T21:42:20.946Z,11.37
2023-04-16T21:47:24.159Z,11.00
2023-04-16T21:52:27.754Z,12.20
2023-04-16T21:57:31.087Z,11.03
2023-04-16T22:02:34.524Z,13.03
2023-04-16T22:07:38.204Z,17.73
2023-04-16T22:12:41.528Z,12.90
2023-04-16T22:17:44.843Z,14.77
2023-04-16T22:22:48.675Z,15.60
2023-04-16T22:27:51.899Z,15.77
2023-04-16T22:32:55.569Z,14.83
2023-04-16T22:37:58.813Z,15.97
2023-04-16T22:43:02.003Z,19.10
2023-04-16T22:48:05.395Z,17.97
2023-04-16T22:53:09.029Z,15.43
2023-04-16T22:58:12.153Z,18.13
2023-04-16T23:03:16.085Z,17.77
2023-04-16T23:08:19.386Z,18.73
2023-04-16T23:13:22.633Z,19.00
2023-04-16T23:18:26.038Z,20.27
2023-04-16T23:23:30.304Z,19.47
2023-04-16T23:28:33.499Z,27.73
2023-04-16T23:33:36.864Z,19.53
2023-04-16T23:38:40.138Z,20.70
2023-04-16T23:43:43.374Z,20.90
2023-04-16T23:48:46.689Z,20.00
2023-04-16T23:53:49.890Z,19.27
2023-04-16T23:58:53.661Z,19.30
